Holst, Minnesota
Current Conditions -  °F | °C
As of 8:35 AM on Friday 28 Nov 2014 (Local Time) from KFSE Reporting Station
Light Snow Light Snow  
Wind Chill: -3°   Ceiling: 4800
Heat Index:   Visibility: 7mi
Dew Point:   Wind: 7mph
Humidity: 79%   Direction: 120°ESE
Pressure: 29.95"   Gusts: NA
Location:  47.6306°N, 95.3701°W
Report Text: KFSE 281435Z AUTO 12006KT 7SM -SN BKN048 BKN050 OVC080 M13/M16 A2995 RMK AO2
Loading
Personal Weather Stations






























Interactive Weather Map New forecast layout! Learn more

10-Day Weather Forecast

Advertisements
Track Severe Weather on mobile